createdAt,value
2022-10-08T00:00:08.751Z,7.40
2022-10-08T00:02:40.430Z,7.40
2022-10-08T00:05:09.255Z,7.50
2022-10-08T00:07:37.925Z,7.40
2022-10-08T00:10:11.579Z,7.40
2022-10-08T00:12:47.442Z,7.40
2022-10-08T00:15:32.736Z,7.60
2022-10-08T00:18:03.672Z,7.60
2022-10-08T00:20:31.948Z,7.40
2022-10-08T00:23:01.566Z,7.40
2022-10-08T00:25:29.943Z,7.40
2022-10-08T00:28:15.970Z,7.40
2022-10-08T00:30:44.463Z,7.40
2022-10-08T00:33:16.003Z,7.30
2022-10-08T00:35:44.123Z,7.50
2022-10-08T00:38:12.299Z,7.50
2022-10-08T00:40:49.909Z,7.50
2022-10-08T00:43:44.485Z,7.50
2022-10-08T00:46:28.245Z,7.50
2022-10-08T00:49:06.374Z,7.40
2022-10-08T00:51:35.971Z,7.40
2022-10-08T00:54:13.750Z,7.40
2022-10-08T00:56:54.113Z,7.30
2022-10-08T00:59:30.669Z,7.50
2022-10-08T01:02:01.012Z,7.50
2022-10-08T01:04:36.377Z,7.50
2022-10-08T01:07:24.930Z,7.50
2022-10-08T01:10:08.111Z,7.60
2022-10-08T01:12:55.658Z,7.70
2022-10-08T01:15:49.895Z,7.70
2022-10-08T01:18:24.100Z,7.80
2022-10-08T01:21:04.067Z,7.80
2022-10-08T01:24:03.634Z,7.90
2022-10-08T01:26:50.106Z,7.90
2022-10-08T01:29:37.995Z,8.10
2022-10-08T01:32:14.684Z,8.10
2022-10-08T01:34:49.676Z,8.20
2022-10-08T01:37:24.754Z,8.30
2022-10-08T01:39:59.043Z,8.50
2022-10-08T01:42:42.852Z,8.70
2022-10-08T01:45:27.700Z,8.80
2022-10-08T01:48:00.270Z,8.90
2022-10-08T01:50:42.327Z,8.90
2022-10-08T01:53:20.257Z,8.90
2022-10-08T01:55:57.868Z,9.10
2022-10-08T01:58:33.031Z,9.00
2022-10-08T02:01:15.433Z,9.00
2022-10-08T02:04:06.325Z,9.00
2022-10-08T02:06:40.230Z,8.90
2022-10-08T02:09:12.568Z,8.80
2022-10-08T02:11:43.926Z,8.90
2022-10-08T02:14:18.467Z,9.10
2022-10-08T02:19:54.636Z,8.80
2022-10-08T02:22:30.798Z,8.90
2022-10-08T02:25:10.354Z,8.80
2022-10-08T02:28:02.330Z,8.80
2022-10-08T02:30:52.358Z,8.80
2022-10-08T02:33:33.933Z,8.90
2022-10-08T02:36:05.468Z,8.60
2022-10-08T02:38:36.940Z,8.70
2022-10-08T02:44:03.920Z,8.60
2022-10-08T02:46:43.952Z,8.60
2022-10-08T02:49:19.660Z,8.50
2022-10-08T02:51:58.784Z,8.50
2022-10-08T02:54:40.947Z,8.40
2022-10-08T02:57:22.252Z,8.50
2022-10-08T02:59:53.406Z,8.40
2022-10-08T03:02:31.598Z,8.30
2022-10-08T03:05:05.739Z,8.30
2022-10-08T03:10:30.565Z,8.30
2022-10-08T03:13:02.510Z,8.30
2022-10-08T03:15:33.494Z,8.30
2022-10-08T03:18:03.461Z,8.30
2022-10-08T03:20:33.869Z,8.30
2022-10-08T03:23:02.877Z,8.20
2022-10-08T03:25:30.923Z,8.10
2022-10-08T03:27:59.039Z,8.20
2022-10-08T03:30:27.274Z,8.20
2022-10-08T03:33:01.765Z,8.20
2022-10-08T03:35:30.017Z,8.20
2022-10-08T03:37:59.596Z,8.40
2022-10-08T03:40:35.735Z,8.20
2022-10-08T03:43:07.130Z,8.20
2022-10-08T03:45:35.306Z,8.20
2022-10-08T03:48:03.753Z,8.20
2022-10-08T03:50:40.171Z,8.10
2022-10-08T03:53:14.661Z,8.30
2022-10-08T03:55:42.802Z,8.40
2022-10-08T03:58:12.659Z,8.40
2022-10-08T04:00:45.687Z,8.50
2022-10-08T04:03:15.285Z,8.50
2022-10-08T04:05:52.990Z,8.60
2022-10-08T04:08:27.053Z,8.60
2022-10-08T04:11:09.431Z,8.70
2022-10-08T04:13:39.616Z,8.70
2022-10-08T04:16:23.122Z,8.80
2022-10-08T04:18:54.111Z,8.90
2022-10-08T04:21:34.433Z,9.10
2022-10-08T04:27:11.228Z,9.30
2022-10-08T04:29:39.375Z,9.70
2022-10-08T04:32:13.390Z,9.60
2022-10-08T04:34:44.607Z,9.40
2022-10-08T04:37:13.056Z,9.80
2022-10-08T04:39:45.324Z,9.90
2022-10-08T04:42:16.097Z,10.00
2022-10-08T04:44:47.285Z,10.10
2022-10-08T04:47:15.255Z,10.10
2022-10-08T04:49:43.678Z,10.30
2022-10-08T04:52:13.750Z,10.30
2022-10-08T04:54:43.251Z,10.30
2022-10-08T04:57:11.185Z,10.40
2022-10-08T04:59:53.711Z,10.50
2022-10-08T05:02:27.146Z,10.50
2022-10-08T05:04:55.192Z,10.60
2022-10-08T05:07:24.256Z,10.60
2022-10-08T05:09:53.615Z,10.70
2022-10-08T05:12:21.585Z,10.70
2022-10-08T05:14:49.535Z,10.80
2022-10-08T05:17:17.508Z,10.80
2022-10-08T05:19:45.897Z,10.90
2022-10-08T05:22:13.931Z,10.90
2022-10-08T05:24:41.897Z,10.90
2022-10-08T05:27:11.276Z,11.00
2022-10-08T05:29:39.548Z,11.10
2022-10-08T05:32:07.548Z,11.00
2022-10-08T05:34:35.537Z,11.00
2022-10-08T05:37:03.521Z,11.10
2022-10-08T05:39:31.463Z,11.10
2022-10-08T05:41:59.500Z,11.00
2022-10-08T05:44:28.927Z,11.00
2022-10-08T05:46:56.995Z,11.00
2022-10-08T05:49:25.258Z,11.00
2022-10-08T05:51:53.211Z,11.00
2022-10-08T05:54:21.990Z,10.90
2022-10-08T05:56:50.123Z,10.70
2022-10-08T05:59:20.229Z,10.90
2022-10-08T06:01:49.875Z,10.90
2022-10-08T06:04:19.380Z,10.90
2022-10-08T06:06:47.492Z,10.90
2022-10-08T06:09:18.092Z,10.90
2022-10-08T06:11:46.775Z,10.90
2022-10-08T06:14:17.070Z,10.90
2022-10-08T06:16:45.137Z,10.90
2022-10-08T06:19:14.963Z,10.90
2022-10-08T06:21:42.957Z,10.90
2022-10-08T06:24:13.259Z,10.90
2022-10-08T06:26:42.918Z,10.90
2022-10-08T06:29:14.997Z,10.90
2022-10-08T06:31:43.291Z,10.90
2022-10-08T06:34:11.305Z,11.00
2022-10-08T06:36:41.058Z,10.90
2022-10-08T06:39:12.508Z,10.90
2022-10-08T06:41:40.531Z,11.00
2022-10-08T06:44:11.318Z,11.00
2022-10-08T06:46:39.351Z,11.00
2022-10-08T06:49:07.463Z,11.00
2022-10-08T06:51:35.987Z,11.10
2022-10-08T06:54:08.273Z,11.10
2022-10-08T06:56:37.672Z,11.10
2022-10-08T06:59:06.771Z,11.10
2022-10-08T07:01:35.427Z,11.20
2022-10-08T07:04:05.408Z,11.30
2022-10-08T07:06:33.645Z,11.30
2022-10-08T07:09:02.512Z,11.30
2022-10-08T07:11:33.591Z,11.30
2022-10-08T07:14:01.769Z,11.30
2022-10-08T07:16:30.333Z,11.40
2022-10-08T07:18:59.425Z,11.40
2022-10-08T07:21:28.713Z,11.40
2022-10-08T07:23:56.971Z,11.40
2022-10-08T07:26:26.847Z,11.40
2022-10-08T07:28:58.231Z,11.50
2022-10-08T07:31:28.399Z,11.50
2022-10-08T07:33:56.778Z,11.50
2022-10-08T07:36:25.903Z,11.40
2022-10-08T07:38:58.231Z,11.40
2022-10-08T07:41:27.004Z,11.40
2022-10-08T07:43:59.538Z,11.40
2022-10-08T07:46:28.340Z,11.40
2022-10-08T07:48:58.973Z,11.40
2022-10-08T07:51:28.092Z,11.40
2022-10-08T07:54:00.267Z,11.40
2022-10-08T07:56:30.614Z,11.40
2022-10-08T07:59:00.609Z,11.40
2022-10-08T08:01:30.281Z,11.40
2022-10-08T08:04:00.183Z,11.30
2022-10-08T08:06:28.185Z,11.40
2022-10-08T08:08:56.806Z,11.40
2022-10-08T08:11:26.056Z,11.50
2022-10-08T08:13:54.574Z,11.50
2022-10-08T08:16:26.370Z,11.50
2022-10-08T08:18:56.445Z,11.50
2022-10-08T08:21:26.400Z,11.60
2022-10-08T08:23:56.366Z,11.60
2022-10-08T08:26:26.144Z,11.70
2022-10-08T08:28:55.965Z,11.70
2022-10-08T08:31:27.640Z,11.70
2022-10-08T08:33:58.251Z,11.70
2022-10-08T08:36:28.288Z,11.70
2022-10-08T08:38:57.283Z,11.80
2022-10-08T08:41:42.458Z,11.80
2022-10-08T08:44:13.799Z,11.80
2022-10-08T08:46:47.552Z,11.90
2022-10-08T08:49:23.027Z,12.00
2022-10-08T08:51:51.093Z,12.10
2022-10-08T08:54:19.138Z,12.20
2022-10-08T08:56:47.682Z,12.20
2022-10-08T08:59:27.262Z,12.30
2022-10-08T09:02:00.060Z,12.30
2022-10-08T09:04:39.535Z,12.30
2022-10-08T09:07:16.205Z,12.30
2022-10-08T09:09:47.847Z,12.30
2022-10-08T09:12:21.026Z,12.30
2022-10-08T09:14:54.462Z,12.30
2022-10-08T09:17:31.265Z,12.40
2022-10-08T09:20:00.527Z,12.50
2022-10-08T09:22:31.253Z,12.90
2022-10-08T09:25:01.140Z,13.90
2022-10-08T09:27:45.368Z,14.70
2022-10-08T09:30:32.481Z,15.30
2022-10-08T09:33:05.731Z,15.30
2022-10-08T09:35:35.595Z,15.20
2022-10-08T09:38:06.144Z,15.10
2022-10-08T09:40:34.493Z,15.00
2022-10-08T09:43:12.831Z,14.80
2022-10-08T09:45:43.311Z,14.50
2022-10-08T09:48:21.547Z,14.40
2022-10-08T09:50:56.156Z,14.70
2022-10-08T09:53:27.076Z,14.60
2022-10-08T09:55:59.394Z,14.50
2022-10-08T09:58:31.084Z,14.30
2022-10-08T10:01:05.507Z,14.20
2022-10-08T10:03:37.070Z,14.10
2022-10-08T10:06:05.526Z,14.10
2022-10-08T10:08:51.705Z,14.10
2022-10-08T10:11:27.475Z,14.30
2022-10-08T10:13:58.544Z,14.30
2022-10-08T10:16:33.646Z,14.20
2022-10-08T10:19:07.438Z,14.30
2022-10-08T10:21:52.646Z,14.30
2022-10-08T10:24:49.832Z,14.50
2022-10-08T10:27:25.568Z,14.90
2022-10-08T10:30:01.892Z,15.40
2022-10-08T10:32:34.972Z,15.30
2022-10-08T10:35:13.602Z,15.10
2022-10-08T10:37:48.220Z,14.90
2022-10-08T10:40:38.683Z,14.60
2022-10-08T10:43:34.210Z,14.40
2022-10-08T10:46:15.314Z,14.30
2022-10-08T10:48:43.605Z,14.50
2022-10-08T10:51:33.091Z,14.70
2022-10-08T10:54:12.869Z,15.00
2022-10-08T10:56:47.180Z,15.20
2022-10-08T10:59:34.140Z,15.40
2022-10-08T11:02:15.417Z,15.60
2022-10-08T11:05:01.921Z,15.80
2022-10-08T11:08:07.527Z,15.80
2022-10-08T11:10:57.517Z,15.90
2022-10-08T11:13:41.458Z,16.10
2022-10-08T11:16:29.542Z,16.30
2022-10-08T11:18:59.841Z,16.50
2022-10-08T11:21:44.932Z,16.60
2022-10-08T11:24:40.933Z,16.60
2022-10-08T11:27:18.976Z,16.70
2022-10-08T11:29:52.883Z,16.80
2022-10-08T11:32:21.811Z,16.90
2022-10-08T11:34:53.842Z,16.90
2022-10-08T11:37:28.207Z,16.80
2022-10-08T11:40:05.375Z,16.70
2022-10-08T11:42:47.486Z,16.40
2022-10-08T11:45:31.895Z,16.20
2022-10-08T11:48:01.028Z,16.00
2022-10-08T11:50:34.050Z,15.80
2022-10-08T11:53:15.195Z,15.70
2022-10-08T11:55:53.871Z,15.80
2022-10-08T11:58:28.164Z,15.80
2022-10-08T12:01:04.410Z,15.80
2022-10-08T12:03:35.373Z,15.80
2022-10-08T12:06:19.450Z,15.70
2022-10-08T12:08:53.745Z,15.70
2022-10-08T12:11:55.152Z,15.90
2022-10-08T12:14:47.503Z,16.10
2022-10-08T12:17:16.470Z,16.40
2022-10-08T12:20:22.022Z,16.50
2022-10-08T12:23:05.999Z,16.40
2022-10-08T12:25:40.989Z,16.20
2022-10-08T12:28:50.317Z,16.10
2022-10-08T12:31:26.826Z,16.10
2022-10-08T12:34:05.016Z,16.00
2022-10-08T12:36:51.066Z,16.00
2022-10-08T12:39:28.003Z,15.90
2022-10-08T12:42:05.287Z,15.80
2022-10-08T12:44:45.226Z,15.70
2022-10-08T12:47:26.224Z,15.70
2022-10-08T12:50:04.209Z,15.50
2022-10-08T12:52:43.090Z,15.60
2022-10-08T12:55:17.448Z,15.60
2022-10-08T12:57:48.096Z,15.40
2022-10-08T13:00:24.215Z,15.30
2022-10-08T13:03:04.944Z,15.00
2022-10-08T13:05:35.578Z,14.80
2022-10-08T13:08:26.873Z,14.70
2022-10-08T13:10:55.391Z,14.50
2022-10-08T13:13:36.027Z,14.50
2022-10-08T13:16:08.415Z,14.40
2022-10-08T13:18:38.125Z,14.30
2022-10-08T13:21:08.900Z,14.10
2022-10-08T13:23:42.903Z,14.10
2022-10-08T13:26:38.437Z,14.00
2022-10-08T13:29:29.842Z,14.00
2022-10-08T13:32:04.322Z,14.00
2022-10-08T13:34:34.889Z,14.20
2022-10-08T13:37:06.035Z,14.50
2022-10-08T13:39:38.057Z,14.60
2022-10-08T13:42:41.417Z,14.80
2022-10-08T13:45:16.271Z,15.10
2022-10-08T13:47:46.839Z,14.90
2022-10-08T13:50:15.752Z,14.90
2022-10-08T13:52:57.789Z,15.00
2022-10-08T13:55:44.644Z,15.00
2022-10-08T13:58:14.921Z,15.00
2022-10-08T14:00:44.667Z,15.10
2022-10-08T14:03:27.053Z,15.10
2022-10-08T14:06:27.224Z,15.10
2022-10-08T14:08:55.739Z,15.20
2022-10-08T14:11:24.190Z,15.20
2022-10-08T14:13:52.311Z,15.30
2022-10-08T14:16:20.551Z,15.40
2022-10-08T14:18:50.214Z,15.40
2022-10-08T14:21:20.151Z,15.40
2022-10-08T14:23:48.402Z,15.30
2022-10-08T14:26:16.618Z,15.30
2022-10-08T14:28:44.802Z,15.30
2022-10-08T14:31:15.018Z,15.40
2022-10-08T14:33:43.282Z,15.30
2022-10-08T14:36:17.869Z,15.20
2022-10-08T14:38:49.024Z,15.10
2022-10-08T14:41:17.774Z,15.00
2022-10-08T14:43:46.001Z,15.00
2022-10-08T14:46:14.359Z,14.90
2022-10-08T14:48:42.755Z,15.00
2022-10-08T14:51:12.576Z,15.00
2022-10-08T14:53:42.101Z,15.00
2022-10-08T14:56:12.919Z,15.00
2022-10-08T14:58:41.332Z,15.00
2022-10-08T15:01:14.947Z,14.90
2022-10-08T15:03:45.718Z,14.90
2022-10-08T15:06:14.086Z,14.90
2022-10-08T15:08:43.708Z,14.90
2022-10-08T15:11:12.210Z,14.90
2022-10-08T15:13:40.524Z,14.90
2022-10-08T15:16:12.135Z,14.80
2022-10-08T15:18:40.543Z,14.80
2022-10-08T15:21:08.847Z,14.70
2022-10-08T15:23:50.643Z,14.60
2022-10-08T15:26:22.224Z,14.50
2022-10-08T15:28:56.422Z,14.40
2022-10-08T15:31:29.662Z,14.30
2022-10-08T15:33:59.844Z,14.20
2022-10-08T15:36:30.305Z,14.10
2022-10-08T15:39:01.772Z,14.00
2022-10-08T15:41:32.114Z,13.90
2022-10-08T15:44:10.678Z,13.90
2022-10-08T15:46:39.362Z,13.80
2022-10-08T15:49:17.325Z,13.70
2022-10-08T15:51:45.712Z,13.70
2022-10-08T15:54:15.725Z,13.60
2022-10-08T15:56:44.006Z,13.60
2022-10-08T15:59:12.489Z,13.50
2022-10-08T16:01:40.891Z,13.40
2022-10-08T16:04:12.334Z,13.30
2022-10-08T16:06:45.087Z,13.20
2022-10-08T16:09:16.362Z,13.10
2022-10-08T16:11:45.425Z,13.10
2022-10-08T16:14:16.227Z,13.00
2022-10-08T16:16:44.725Z,12.90
2022-10-08T16:19:16.315Z,12.90
2022-10-08T16:21:46.254Z,12.90
2022-10-08T16:24:17.041Z,12.80
2022-10-08T16:26:45.695Z,12.70
2022-10-08T16:29:15.798Z,12.60
2022-10-08T16:31:46.257Z,12.50
2022-10-08T16:34:17.240Z,12.40
2022-10-08T16:36:48.178Z,12.30
2022-10-08T16:39:26.715Z,12.20
2022-10-08T16:41:55.289Z,12.20
2022-10-08T16:44:23.741Z,12.10
2022-10-08T16:46:53.363Z,12.10
2022-10-08T16:49:25.489Z,12.00
2022-10-08T16:51:55.577Z,12.00
2022-10-08T16:54:25.416Z,11.90
2022-10-08T16:56:53.548Z,11.90
2022-10-08T16:59:23.951Z,11.80
2022-10-08T17:01:54.605Z,11.70
2022-10-08T17:04:24.750Z,11.60
2022-10-08T17:06:53.339Z,11.50
2022-10-08T17:09:21.794Z,11.40
2022-10-08T17:11:52.252Z,11.30
2022-10-08T17:14:20.468Z,11.20
2022-10-08T17:16:50.372Z,11.10
2022-10-08T17:19:18.895Z,11.00
2022-10-08T17:21:47.409Z,10.90
2022-10-08T17:24:15.763Z,10.80
2022-10-08T17:26:43.845Z,10.70
2022-10-08T17:29:13.831Z,10.60
2022-10-08T17:31:42.290Z,10.50
2022-10-08T17:34:11.579Z,10.50
2022-10-08T17:36:41.618Z,10.40
2022-10-08T17:39:12.897Z,10.30
2022-10-08T17:41:41.899Z,10.20
2022-10-08T17:44:12.535Z,10.10
2022-10-08T17:46:42.848Z,10.10
2022-10-08T17:49:11.043Z,10.00
2022-10-08T17:51:39.631Z,10.00
2022-10-08T17:54:09.694Z,9.90
2022-10-08T17:56:37.996Z,9.80
2022-10-08T17:59:06.180Z,9.80
2022-10-08T18:01:40.209Z,9.70
2022-10-08T18:04:13.756Z,9.70
2022-10-08T18:06:43.523Z,9.60
2022-10-08T18:09:14.076Z,9.50
2022-10-08T18:11:44.788Z,9.50
2022-10-08T18:14:13.235Z,9.40
2022-10-08T18:16:47.708Z,9.30
2022-10-08T18:19:16.787Z,9.30
2022-10-08T18:21:44.927Z,9.20
2022-10-08T18:24:12.968Z,9.20
2022-10-08T18:26:41.138Z,9.10
2022-10-08T18:29:11.713Z,9.10
2022-10-08T18:31:43.461Z,9.00
2022-10-08T18:34:15.380Z,9.00
2022-10-08T18:36:43.786Z,9.00
2022-10-08T18:39:14.384Z,9.00
2022-10-08T18:41:44.306Z,8.90
2022-10-08T18:44:14.284Z,8.90
2022-10-08T18:46:45.242Z,8.90
2022-10-08T18:49:15.303Z,8.80
2022-10-08T18:51:43.513Z,8.80
2022-10-08T18:54:12.942Z,8.80
2022-10-08T18:56:41.558Z,8.80
2022-10-08T18:59:12.567Z,8.70
2022-10-08T19:01:42.205Z,8.70
2022-10-08T19:04:15.316Z,8.70
2022-10-08T19:06:45.260Z,8.60
2022-10-08T19:09:14.006Z,8.60
2022-10-08T19:11:45.292Z,8.60
2022-10-08T19:14:15.416Z,8.50
2022-10-08T19:16:44.075Z,8.50
2022-10-08T19:19:16.563Z,8.50
2022-10-08T19:21:44.898Z,8.50
2022-10-08T19:24:16.142Z,8.50
2022-10-08T19:26:45.081Z,8.40
2022-10-08T19:29:16.270Z,8.40
2022-10-08T19:31:47.596Z,8.30
2022-10-08T19:34:19.842Z,8.30
2022-10-08T19:36:48.554Z,8.30
2022-10-08T19:39:18.642Z,8.30
2022-10-08T19:41:47.954Z,8.30
2022-10-08T19:44:16.669Z,8.20
2022-10-08T19:46:45.378Z,8.20
2022-10-08T19:49:13.897Z,8.10
2022-10-08T19:51:43.969Z,8.10
2022-10-08T19:54:13.008Z,8.10
2022-10-08T19:56:41.541Z,8.10
2022-10-08T19:59:11.525Z,8.10
2022-10-08T20:01:41.282Z,8.00
2022-10-08T20:04:10.636Z,8.00
2022-10-08T20:06:40.763Z,8.00
2022-10-08T20:09:12.983Z,8.00
2022-10-08T20:11:41.846Z,7.90
2022-10-08T20:14:10.426Z,8.10
2022-10-08T20:16:41.350Z,7.80
2022-10-08T20:19:14.792Z,7.80
2022-10-08T20:21:42.933Z,7.70
2022-10-08T20:24:12.568Z,7.70
2022-10-08T20:26:42.508Z,7.70
2022-10-08T20:29:13.076Z,7.70
2022-10-08T20:31:43.852Z,7.70
2022-10-08T20:34:14.863Z,7.80
2022-10-08T20:36:43.058Z,7.80
2022-10-08T20:39:13.921Z,7.90
2022-10-08T20:41:42.353Z,7.90
2022-10-08T20:44:10.978Z,7.90
2022-10-08T20:46:39.577Z,8.00
2022-10-08T20:49:08.222Z,8.00
2022-10-08T20:51:36.430Z,8.00
2022-10-08T20:54:07.296Z,8.00
2022-10-08T20:56:40.255Z,8.00
2022-10-08T20:59:08.925Z,8.00
2022-10-08T21:01:38.842Z,7.90
2022-10-08T21:04:07.989Z,8.00
2022-10-08T21:06:38.569Z,7.90
2022-10-08T21:09:07.337Z,7.90
2022-10-08T21:11:37.823Z,7.90
2022-10-08T21:14:06.909Z,7.90
2022-10-08T21:16:37.881Z,7.80
2022-10-08T21:19:07.890Z,7.80
2022-10-08T21:21:36.506Z,7.80
2022-10-08T21:24:04.705Z,7.70
2022-10-08T21:26:35.362Z,7.70
2022-10-08T21:29:07.108Z,7.60
2022-10-08T21:31:37.334Z,7.60
2022-10-08T21:34:06.463Z,7.50
2022-10-08T21:36:37.102Z,7.50
2022-10-08T21:39:06.817Z,7.50
2022-10-08T21:41:36.644Z,7.40
2022-10-08T21:44:08.547Z,7.40
2022-10-08T21:46:38.829Z,7.50
2022-10-08T21:49:09.040Z,7.30
2022-10-08T21:51:37.161Z,7.40
2022-10-08T21:54:07.578Z,7.20
2022-10-08T21:56:37.841Z,7.20
2022-10-08T21:59:08.633Z,7.10
2022-10-08T22:01:39.344Z,7.10
2022-10-08T22:04:08.961Z,7.00
2022-10-08T22:06:38.986Z,7.00
2022-10-08T22:09:09.103Z,6.90
2022-10-08T22:11:37.400Z,6.90
2022-10-08T22:14:07.153Z,6.90
2022-10-08T22:16:35.562Z,6.90
2022-10-08T22:19:04.134Z,6.80
2022-10-08T22:21:32.165Z,6.80
2022-10-08T22:24:00.331Z,6.80
2022-10-08T22:26:30.907Z,6.80
2022-10-08T22:28:59.389Z,6.80
2022-10-08T22:31:28.911Z,6.80
2022-10-08T22:33:57.142Z,6.70
2022-10-08T22:36:26.896Z,6.60
2022-10-08T22:38:55.335Z,6.60
2022-10-08T22:41:24.932Z,6.80
2022-10-08T22:43:53.525Z,6.60
2022-10-08T22:46:23.384Z,6.60
2022-10-08T22:48:53.203Z,6.60
2022-10-08T22:51:31.445Z,6.50
2022-10-08T22:54:02.586Z,6.20
2022-10-08T22:56:34.572Z,6.40
2022-10-08T22:59:03.553Z,6.40
2022-10-08T23:01:33.221Z,6.40
2022-10-08T23:04:03.093Z,6.40
2022-10-08T23:06:37.502Z,6.30
2022-10-08T23:09:14.767Z,6.30
2022-10-08T23:11:46.816Z,6.30
2022-10-08T23:14:19.577Z,6.20
2022-10-08T23:16:47.839Z,6.20
2022-10-08T23:19:17.504Z,6.30
2022-10-08T23:21:47.797Z,6.20
2022-10-08T23:24:17.272Z,6.10
2022-10-08T23:26:45.620Z,6.10
2022-10-08T23:29:21.092Z,6.10
2022-10-08T23:31:52.455Z,5.90
2022-10-08T23:34:25.766Z,6.10
2022-10-08T23:36:56.523Z,6.10
2022-10-08T23:39:34.889Z,6.10
2022-10-08T23:42:10.333Z,6.10
2022-10-08T23:44:41.069Z,6.20
2022-10-08T23:47:12.421Z,6.30
2022-10-08T23:49:44.230Z,6.30
2022-10-08T23:52:14.800Z,6.40
2022-10-08T23:54:46.069Z,6.40
2022-10-08T23:57:16.298Z,6.50
2022-10-08T23:59:50.683Z,6.50
